Latest Weather Observations for Larapuna (Eddystone Point)

IDT60801

Issued at 9:05 pm EDT Friday 24 October 2014 (issued every 30 minutes, with the page automatically refreshed every 10 minutes)

About weather observations | Map of weather stations | Latest weather observations for TAS | Other Formats
Station Details ID: 092045 Name: LARAPUNA (EDDYSTONE POINT) Lat: -40.99 Lon: 148.35 Height: 19.7 m
Data from the previous 72 hours. | See also: Recent months at Larapuna (Eddystone Point)
Date/Time
EDT
Temp
°C
App
Temp
°C
Dew
Point
Rel
Hum
%
Delta-T
°C
Wind Press
QNH
hPa
Press
MSL
hPa
Rain
since 9 am
mm
Dir
 
Spd
km/h
Gust
km/h
Spd
kts
Gust
kts
24/09:00pm 14.8 13.6 14.0 95 0.5 N 13 17 7 9 1009.8 1009.8 0.0
24/08:30pm 15.0 14.3 14.2 95 0.5 N 11 15 6 8 1009.9 1009.9 0.0
24/08:00pm 15.2 14.1 14.4 95 0.5 NNW 13 17 7 9 1009.9 1009.9 0.0
24/07:30pm 15.2 13.0 14.4 95 0.5 N 19 22 10 12 1009.9 1009.9 0.0
24/07:00pm 15.4 12.6 14.4 94 0.6 NNE 22 26 12 14 1009.6 1009.6 0.0
24/06:30pm 15.7 11.9 14.7 94 0.6 NNE 28 33 15 18 1009.7 1009.7 0.0
24/06:00pm 15.5 12.0 14.4 93 0.6 NE 26 30 14 16 1010.1 1010.1 0.0
24/05:30pm 15.5 12.4 14.4 93 0.6 NE 24 28 13 15 1010.3 1010.3 0.0
24/05:00pm 15.5 12.3 14.2 92 0.7 NE 24 28 13 15 1010.9 1010.9 0.0
24/04:30pm 15.6 11.2 14.1 91 0.8 NE 30 35 16 19 1011.0 1011.0 0.0
24/04:00pm 15.6 11.2 14.0 90 0.9 ENE 30 37 16 20 1011.6 1011.6 0.0
24/03:30pm 15.7 10.9 14.1 90 0.9 ENE 32 37 17 20 1012.2 1012.2 0.0
24/03:00pm 15.8 10.8 14.0 89 1.0 NE 33 39 18 21 1012.8 1012.8 0.0
24/02:30pm 15.9 11.4 13.9 88 1.1 NE 30 37 16 20 1013.6 1013.6 0.0
24/02:00pm 16.0 12.0 14.0 88 1.1 ENE 28 32 15 17 1014.1 1014.1 0.0
24/01:30pm 16.5 13.0 14.5 88 1.1 ENE 26 32 14 17 1014.7 1014.7 0.0
24/01:00pm 16.0 12.4 14.2 89 1.0 NE 26 32 14 17 1015.2 1015.2 0.0
24/12:30pm 16.0 12.5 14.4 90 0.9 NE 26 32 14 17 1015.7 1015.7 0.0
24/12:00pm 15.7 11.7 14.2 91 0.8 NE 28 32 15 17 1016.3 1016.3 0.0
24/11:30am 15.5 11.5 14.0 91 0.8 ENE 28 32 15 17 1016.8 1016.8 0.0
24/11:00am 15.2 10.4 13.9 92 0.7 ENE 32 37 17 20 1017.2 1017.2 0.0
24/10:30am 15.2 10.4 13.9 92 0.7 NE 32 39 17 21 1017.7 1017.7 0.0
24/10:00am 14.8 9.6 13.5 92 0.7 ENE 33 43 18 23 1018.0 1018.0 0.0
24/09:30am 14.6 8.5 13.0 90 0.9 NE 37 46 20 25 1018.6 1018.6 0.0
24/09:00am 14.7 8.6 12.9 89 1.0 ENE 37 44 20 24 1019.0 1019.0 0.0
24/08:30am 14.6 8.8 12.6 88 1.1 ENE 35 43 19 23 1019.4 1019.4 0.0
24/08:00am 14.3 8.8 12.3 88 1.1 ENE 33 41 18 22 1019.8 1019.8 0.0
24/07:30am 14.2 7.8 12.1 87 1.1 ENE 37 43 20 23 1019.9 1019.9 0.0
24/07:00am 14.1 8.0 11.8 86 1.2 E 35 43 19 23 1019.9 1019.9 0.0
24/06:30am 14.0 8.2 11.5 85 1.3 E 33 39 18 21 1020.3 1020.3 0.0
24/06:00am 13.8 8.5 11.1 84 1.4 E 30 39 16 21 1020.6 1020.6 0.0
24/05:30am 13.7 7.7 10.7 82 1.6 E 33 41 18 22 1020.8 1020.8 0.0
24/05:00am 13.6 7.6 10.2 80 1.8 E 32 39 17 21 1021.1 1021.1 0.0
24/04:30am 13.5 6.8 9.7 78 1.9 E 35 41 19 22 1021.3 1021.3 0.0
24/04:00am 13.6 7.8 9.5 76 2.1 E 30 37 16 20 1021.7 1021.7 0.0
24/03:30am 13.5 8.8 9.2 75 2.2 E 24 30 13 16 1022.1 1022.1 0.0
24/03:00am 13.5 8.7 9.0 74 2.3 E 24 35 13 19 1022.1 1022.1 0.0
24/02:30am 13.3 8.1 8.8 74 2.3 E 26 33 14 18 1022.6 1022.6 0.0
24/02:00am 13.2 7.2 8.5 73 2.3 E 30 39 16 21 1022.8 1022.8 0.0
24/01:30am 13.1 8.6 8.4 73 2.3 E 22 28 12 15 1023.4 1023.4 0.0
24/01:00am 13.1 8.1 8.2 72 2.4 E 24 33 13 18 1023.9 1023.9 0.0
24/12:30am 13.0 7.2 7.9 71 2.5 E 28 39 15 21 1024.4 1024.4 0.0
24/12:00am 13.1 7.4 8.2 72 2.4 E 28 33 15 18 1024.6 1024.6 0.0
 
Date/Time
EDT
Temp
°C
App
Temp
°C
Dew
Point
Rel
Hum
%
Delta-T
°C
Wind Press
QNH
hPa
Press
MSL
hPa
Rain
since 9 am
mm
Dir
 
Spd
km/h
Gust
km/h
Spd
kts
Gust
kts
23/11:30pm 13.0 6.9 8.1 72 2.4 ESE 30 37 16 20 1025.0 1025.0 0.0
23/11:00pm 13.0 6.3 8.3 73 2.3 ESE 33 39 18 21 1025.2 1025.2 0.0
23/10:30pm 12.9 6.4 8.0 72 2.4 ESE 32 41 17 22 1025.5 1025.5 0.0
23/10:00pm 12.8 6.2 7.9 72 2.4 SE 32 39 17 21 1025.8 1025.8 0.0
23/09:30pm 12.9 6.8 8.2 73 2.3 SE 30 39 16 21 1025.6 1025.6 0.0
23/09:00pm 12.7 6.2 8.0 73 2.3 SE 32 41 17 22 1025.3 1025.3 0.0
23/08:30pm 12.7 6.6 8.2 74 2.2 SE 30 37 16 20 1025.0 1025.0 0.0
23/08:00pm 12.6 6.4 7.9 73 2.3 SE 30 44 16 24 1024.7 1024.7 0.0
23/07:30pm 12.4 5.2 7.7 73 2.3 SE 35 43 19 23 1024.7 1024.7 0.0
23/07:00pm 12.7 5.9 7.6 71 2.5 SE 33 43 18 23 1024.4 1024.4 0.0
23/06:30pm 13.0 5.4 7.7 70 2.6 SSE 37 48 20 26 1024.2 1024.2 0.0
23/06:00pm 13.5 6.7 7.9 69 2.8 SSE 33 43 18 23 1024.2 1024.2 0.0
23/05:30pm 13.7 6.1 7.7 67 3.0 SE 37 46 20 25 1024.0 1024.0 0.0
23/05:00pm 14.7 6.5 8.0 64 3.3 SSE 41 48 22 26 1024.1 1024.1 0.0
23/04:30pm 14.4 6.6 8.4 67 3.0 SSE 39 48 21 26 1023.9 1023.9 0.0
23/04:00pm 15.2 7.3 7.7 61 3.7 SSE 39 48 21 26 1023.9 1023.9 0.0
23/03:30pm 15.2 7.7 8.0 62 3.6 SSE 37 46 20 25 1023.9 1023.9 0.0
23/03:00pm 15.3 7.1 8.3 63 3.5 SSE 41 48 22 26 1024.0 1024.0 0.0
23/02:30pm 15.7 7.2 8.4 62 3.7 SSE 43 52 23 28 1024.0 1024.0 0.0
23/02:00pm 15.4 6.8 8.2 62 3.6 SSE 43 50 23 27 1024.2 1024.2 0.0
23/01:30pm 14.8 6.3 8.7 67 3.1 SSE 43 52 23 28 1024.2 1024.2 0.0
23/01:00pm 15.2 6.5 8.4 64 3.4 SSE 44 54 24 29 1024.0 1024.0 0.0
23/12:30pm 15.5 6.1 8.7 64 3.5 S 48 56 26 30 1023.9 1023.9 0.0
23/12:00pm 15.1 6.0 8.3 64 3.4 SSE 46 56 25 30 1024.1 1024.1 0.0
23/11:30am 14.7 5.4 9.1 69 2.9 S 48 57 26 31 1023.9 1023.9 0.0
23/11:00am 14.4 4.3 8.8 69 2.8 S 52 61 28 33 1024.0 1024.0 0.0
23/10:30am 14.8 4.3 8.7 67 3.1 S 54 63 29 34 1023.9 1023.9 0.0
23/10:00am 14.0 3.9 9.0 72 2.5 S 52 63 28 34 1023.7 1023.7 0.0
23/09:30am 13.5 2.5 8.4 71 2.5 S 56 63 30 34 1023.3 1023.3 0.0
23/09:00am 13.9 2.8 8.7 71 2.6 S 57 69 31 37 1022.9 1022.9 0.0
23/08:30am 13.2 1.7 8.7 74 2.3 S 59 70 32 38 1022.5 1022.5 0.0
23/08:00am 12.9 1.5 9.0 77 2.0 S 59 72 32 39 1022.1 1022.1 0.0
23/07:30am 12.6 1.2 9.2 80 1.7 S 59 69 32 37 1021.5 1021.5 0.0
23/07:00am 12.7 2.4 9.7 82 1.5 S 54 69 29 37 1021.0 1021.0 0.0
23/06:30am 12.5 0.8 9.5 82 1.5 S 61 72 33 39 1020.6 1020.6 0.0
23/06:14am 12.6 2.0 10.0 84 1.3 S 56 74 30 40 1020.5 1020.5 0.0
23/06:00am 13.0 2.0 10.4 84 1.3 S 59 70 32 38 1020.2 1020.2 0.0
23/05:30am 13.5 3.5 10.7 83 1.5 S 54 63 29 34 1020.1 1020.1 0.0
23/05:00am 13.8 3.7 10.4 80 1.8 S 54 67 29 36 1019.6 1019.6 0.0
23/04:30am 13.9 3.9 10.9 82 1.6 S 54 65 29 35 1019.2 1019.2 0.0
23/04:00am 13.9 3.6 11.1 83 1.5 SSE 56 67 30 36 1018.9 1018.9 0.0
23/03:30am 13.9 4.1 11.4 85 1.3 SSE 54 63 29 34 1018.9 1018.9 0.0
23/03:00am 13.9 5.3 11.8 87 1.1 SSE 48 59 26 32 1018.8 1018.8 0.0
23/02:30am 14.0 5.9 12.0 88 1.1 SSE 46 54 25 29 1018.7 1018.7 0.0
23/02:00am 13.9 5.8 11.9 88 1.1 S 46 59 25 32 1018.5 1018.5 0.0
23/01:30am 13.9 5.8 11.9 88 1.1 SSE 46 57 25 31 1018.2 1018.2 0.0
23/01:00am 14.0 5.5 11.9 87 1.1 S 48 65 26 35 1018.1 1018.1 0.0
23/12:30am 14.0 5.5 11.9 87 1.1 SSE 48 59 26 32 1018.2 1018.2 0.0
23/12:00am 14.7 9.0 11.8 83 1.6 SSE 33 43 18 23 1018.3 1018.3 0.0
 
Date/Time
EDT
Temp
°C
App
Temp
°C
Dew
Point
Rel
Hum
%
Delta-T
°C
Wind Press
QNH
hPa
Press
MSL
hPa
Rain
since 9 am
mm
Dir
 
Spd
km/h
Gust
km/h
Spd
kts
Gust
kts
22/11:30pm 16.2 7.2 11.6 74 2.5 S 50 59 27 32 1017.5 1017.5 0.0
22/11:27pm 16.7 7.3 11.6 72 2.8 S 52 59 28 32 1017.2 1017.2 0.0
22/11:26pm 16.9 12.1 11.6 71 2.9 SSW 28 59 15 32 1017.3 1017.3 0.0
22/11:00pm 16.1 10.8 11.3 73 2.6 S 30 43 16 23 1016.4 1016.4 0.0
22/10:30pm 16.1 12.3 11.3 73 2.6 NW 22 30 12 16 1015.1 1015.1 0.0
22/10:00pm 16.1 12.7 11.3 73 2.6 NNW 20 26 11 14 1014.8 1014.8 0.0
22/09:30pm 16.5 13.0 11.0 70 2.9 NW 20 28 11 15 1014.7 1014.7 0.0
22/09:00pm 16.4 12.0 11.6 73 2.6 NW 26 32 14 17 1014.9 1014.9 0.0
22/08:30pm 16.1 12.0 11.5 74 2.5 NNW 24 32 13 17 1014.2 1014.2 0.0
22/08:00pm 16.5 12.3 11.2 71 2.9 NNW 24 32 13 17 1014.6 1014.6 0.0
22/07:30pm 17.6 12.2 10.9 65 3.6 NW 30 43 16 23 1015.4 1015.4 0.0
22/07:00pm 17.4 12.7 11.9 70 3.0 NNW 28 35 15 19 1014.7 1014.7 0.0
22/06:30pm 18.4 13.7 11.9 66 3.6 NW 28 37 15 20 1014.8 1014.8 0.0
22/06:00pm 16.7 12.3 12.8 78 2.2 NNW 28 33 15 18 1015.0 1015.0 0.0
22/05:30pm 16.7 13.0 12.7 77 2.2 N 24 32 13 17 1015.2 1015.2 0.0
22/05:00pm 16.3 12.1 12.5 78 2.1 N 26 30 14 16 1015.2 1015.2 0.0
22/04:30pm 17.0 12.2 12.9 77 2.3 N 30 37 16 20 1015.4 1015.4 0.0
22/04:00pm 17.0 11.6 12.9 77 2.3 N 33 41 18 22 1015.3 1015.3 0.0
22/03:30pm 16.6 11.6 13.3 81 1.8 N 32 37 17 20 1015.7 1015.7 0.0
22/03:00pm 16.6 11.3 13.1 80 2.0 NNE 33 41 18 22 1016.2 1016.2 0.0
22/02:30pm 17.3 12.2 13.0 76 2.4 N 32 39 17 21 1016.4 1016.4 0.0
22/02:00pm 17.2 12.9 13.3 78 2.2 N 28 35 15 19 1017.1 1017.1 0.0
22/01:30pm 17.2 12.9 13.1 77 2.3 N 28 37 15 20 1017.6 1017.6 0.0
22/01:00pm 17.3 13.7 13.2 77 2.3 N 24 30 13 16 1018.5 1018.5 0.0
22/12:30pm 18.1 15.6 13.4 74 2.7 N 19 22 10 12 1019.2 1019.2 0.0
22/12:00pm 18.5 16.2 14.2 76 2.5 N 19 22 10 12 1019.9 1019.9 0.0
22/11:30am 17.6 15.0 13.3 76 2.4 N 19 24 10 13 1020.4 1020.4 0.0
22/11:00am 17.6 15.9 13.7 78 2.2 N 15 19 8 10 1021.0 1021.0 0.0
22/10:30am 17.4 15.3 13.5 78 2.2 N 17 20 9 11 1021.1 1021.1 0.0
22/10:00am 17.1 14.6 13.6 80 2.0 N 19 20 10 11 1021.7 1021.7 0.0
22/09:30am 16.2 13.6 13.1 82 1.7 NNE 19 22 10 12 1021.9 1021.9 0.0
22/09:00am 15.3 12.2 12.2 82 1.7 NNE 20 22 11 12 1022.2 1022.2 0.0
22/08:30am 14.8 10.9 12.1 84 1.5 NNE 24 28 13 15 1022.3 1022.3 0.0
22/08:00am 14.7 10.7 11.8 83 1.6 NNE 24 28 13 15 1022.6 1022.6 0.0
22/07:30am 14.5 10.9 11.8 84 1.5 NNE 22 26 12 14 1022.8 1022.8 0.0
22/07:00am 14.3 11.0 11.6 84 1.4 NNE 20 24 11 13 1023.2 1023.2 0.0
22/06:30am 14.1 10.7 11.4 84 1.4 NNE 20 26 11 14 1023.5 1023.5 0.0
22/06:00am 14.1 10.3 11.3 83 1.5 NNE 22 26 12 14 1023.5 1023.5 0.0
22/05:30am 14.1 10.7 11.1 82 1.6 NNE 20 24 11 13 1023.7 1023.7 0.0
22/05:00am 14.0 10.5 10.8 81 1.7 NNE 20 24 11 13 1024.1 1024.1 0.0
22/04:30am 14.0 9.7 10.6 80 1.8 N 24 28 13 15 1024.4 1024.4 0.0
22/04:00am 14.0 9.5 10.0 77 2.1 N 24 30 13 16 1025.0 1025.0 0.0
22/03:30am 14.0 9.1 9.8 76 2.2 N 26 32 14 17 1025.3 1025.3 0.0
22/03:00am 14.0 9.3 9.2 73 2.4 N 24 32 13 17 1025.9 1025.9 0.0
22/02:30am 14.0 9.3 9.4 74 2.4 N 24 35 13 19 1026.4 1026.4 0.0
22/02:00am 14.0 7.0 8.6 70 2.7 NNE 35 44 19 24 1026.4 1026.4 0.0
22/01:30am 14.0 9.0 9.6 75 2.3 N 26 32 14 17 1027.2 1027.2 0.0
22/01:00am 13.9 8.1 9.5 75 2.2 N 30 35 16 19 1027.6 1027.6 0.0
22/12:30am 14.2 9.6 9.8 75 2.3 N 24 32 13 17 1028.2 1028.3 0.0
22/12:00am 14.2 8.7 9.2 72 2.5 N 28 32 15 17 1028.7 1028.8 0.0
 
Date/Time
EDT
Temp
°C
App
Temp
°C
Dew
Point
Rel
Hum
%
Delta-T
°C
Wind Press
QNH
hPa
Press
MSL
hPa
Rain
since 9 am
mm
Dir
 
Spd
km/h
Gust
km/h
Spd
kts
Gust
kts
21/11:30pm 14.2 8.2 8.8 70 2.7 N 30 35 16 19 1029.1 1029.2 0.0
21/11:00pm 14.3 8.8 9.1 71 2.6 NNE 28 32 15 17 1029.3 1029.4 0.0
21/10:30pm 14.0 8.6 8.2 68 2.9 NNE 26 32 14 17 1029.8 1029.9 0.0
21/10:00pm 14.1 7.7 8.5 69 2.8 NNE 32 37 17 20 1029.7 1029.8 0.0
21/09:30pm 14.0 7.3 7.3 64 3.3 NNE 32 41 17 22 1030.1 1030.2 0.0

Other Formats:

Comma delimited format used in spreadsheet applications
http://www.bom.gov.au/fwo/IDT60801/IDT60801.94983.axf

JavaScript Object Notation format (JSON) in row-major order
http://www.bom.gov.au/fwo/IDT60801/IDT60801.94983.json